Terminal Aerodrome Forecast
Issued by NWS Sterling, VA

Current Version | Previous Version | Text Only | Print | Product List | Glossary Off
Versions: 1 2 3 4 5 6 7 8 9 10 11 12 13 14 15 16 17 18 19 20 21 22 23 24 25

000
FTUS41 KLWX 270534
TAFIAD
TAF
KIAD 270534Z 2706/2812 18006KT P6SM FEW070 SCT120
      TEMPO 2709/2713 BKN020
     FM271700 23010KT 6SM -SHRA VCTS BKN040CB
     FM272200 19006KT P6SM FEW040 BKN200
     FM280400 VRB04KT P6SM BKN100=

USA.gov is the U.S. government's official web portal to all federal, state and local government web resources and services.